createdAt,value
2022-11-25T00:01:08.863Z,41.92
2022-11-25T00:03:37.039Z,44.10
2022-11-25T00:06:16.708Z,44.25
2022-11-25T00:08:46.696Z,32.85
2022-11-25T00:11:16.892Z,45.10
2022-11-25T00:13:45.873Z,40.30
2022-11-25T00:16:15.604Z,36.80
2022-11-25T00:18:46.439Z,34.95
2022-11-25T00:21:16.522Z,39.20
2022-11-25T00:23:44.628Z,34.53
2022-11-25T00:26:14.144Z,31.40
2022-11-25T00:28:44.768Z,32.67
2022-11-25T00:31:14.571Z,34.40
2022-11-25T00:33:42.671Z,36.33
2022-11-25T00:36:19.684Z,36.97
2022-11-25T00:38:48.311Z,34.83
2022-11-25T00:41:34.030Z,34.67
2022-11-25T00:44:20.672Z,27.48
2022-11-25T00:46:48.589Z,33.00
2022-11-25T00:49:16.573Z,30.35
2022-11-25T00:51:44.459Z,38.28
2022-11-25T00:54:12.309Z,26.52
2022-11-25T00:56:41.166Z,34.35
2022-11-25T00:59:10.741Z,37.17
2022-11-25T01:01:39.037Z,34.15
2022-11-25T01:04:07.584Z,38.10
2022-11-25T01:06:36.079Z,31.60
2022-11-25T01:09:04.014Z,43.95
2022-11-25T01:11:32.005Z,38.55
2022-11-25T01:14:01.652Z,35.53
2022-11-25T01:16:32.048Z,39.25
2022-11-25T01:19:00.318Z,28.60
2022-11-25T01:21:30.335Z,32.42
2022-11-25T01:24:00.527Z,42.05
2022-11-25T01:26:29.303Z,30.70
2022-11-25T01:28:59.168Z,37.30
2022-11-25T01:31:28.854Z,30.27
2022-11-25T01:34:00.332Z,36.03
2022-11-25T01:36:28.519Z,31.00
2022-11-25T01:38:59.242Z,33.38
2022-11-25T01:41:30.491Z,32.15
2022-11-25T01:44:13.619Z,32.90
2022-11-25T01:46:53.265Z,31.60
2022-11-25T01:49:28.150Z,35.30
2022-11-25T01:52:02.061Z,24.75
2022-11-25T01:54:35.018Z,33.60
2022-11-25T01:57:06.951Z,37.80
2022-11-25T01:59:38.474Z,29.10
2022-11-25T02:02:07.251Z,34.97
2022-11-25T02:04:40.338Z,33.80
2022-11-25T02:07:12.515Z,33.88
2022-11-25T02:09:43.754Z,34.97
2022-11-25T02:12:12.221Z,31.67
2022-11-25T02:14:40.916Z,32.13
2022-11-25T02:17:09.146Z,27.73
2022-11-25T02:19:51.098Z,28.23
2022-11-25T02:22:27.361Z,31.42
2022-11-25T02:25:01.844Z,27.40
2022-11-25T02:27:31.656Z,31.13
2022-11-25T02:29:59.659Z,27.60
2022-11-25T02:32:27.720Z,26.65
2022-11-25T02:34:55.568Z,25.77
2022-11-25T02:37:25.164Z,28.23
2022-11-25T02:39:54.603Z,21.48
2022-11-25T02:42:24.068Z,38.72
2022-11-25T02:44:53.775Z,32.38
2022-11-25T02:47:21.645Z,37.60
2022-11-25T02:49:49.442Z,38.45
2022-11-25T02:52:17.426Z,35.65
2022-11-25T02:54:45.301Z,44.92
2022-11-25T02:57:13.193Z,36.17
2022-11-25T02:59:41.068Z,26.90
2022-11-25T03:02:10.379Z,34.22
2022-11-25T03:04:38.972Z,29.38
2022-11-25T03:07:06.952Z,36.78
2022-11-25T03:09:34.884Z,28.00
2022-11-25T03:12:20.686Z,31.95
2022-11-25T03:14:48.829Z,28.17
2022-11-25T03:17:18.092Z,32.35
2022-11-25T03:19:45.895Z,23.67
2022-11-25T03:22:13.757Z,35.15
2022-11-25T03:24:41.593Z,27.58
2022-11-25T03:27:09.510Z,34.38
2022-11-25T03:29:37.354Z,39.42
2022-11-25T03:32:09.348Z,35.55
2022-11-25T03:34:39.087Z,31.08
2022-11-25T03:37:07.181Z,31.92
2022-11-25T03:39:35.207Z,30.42
2022-11-25T03:42:03.195Z,36.58
2022-11-25T03:44:31.025Z,37.03
2022-11-25T03:46:58.863Z,34.45
2022-11-25T03:49:26.853Z,32.38
2022-11-25T03:51:56.493Z,33.92
2022-11-25T03:54:24.494Z,33.90
2022-11-25T03:56:52.427Z,32.60
2022-11-25T03:59:20.287Z,35.25
2022-11-25T04:01:48.225Z,61.13
2022-11-25T04:04:16.590Z,50.33
2022-11-25T04:06:44.630Z,109.82
2022-11-25T04:09:13.973Z,61.78
2022-11-25T04:11:59.496Z,49.70
2022-11-25T04:14:27.468Z,71.18
2022-11-25T04:16:55.440Z,55.03
2022-11-25T04:19:23.433Z,61.72
2022-11-25T04:21:52.557Z,99.65
2022-11-25T04:24:22.096Z,62.15
2022-11-25T04:26:52.559Z,70.53
2022-11-25T04:29:20.523Z,86.55
2022-11-25T04:31:48.391Z,107.20
2022-11-25T04:34:16.425Z,136.93
2022-11-25T04:36:44.319Z,117.50
2022-11-25T04:39:12.249Z,71.00
2022-11-25T04:41:41.526Z,90.60
2022-11-25T04:44:09.331Z,75.10
2022-11-25T04:46:40.744Z,54.28
2022-11-25T04:49:08.928Z,48.15
2022-11-25T04:51:36.785Z,43.60
2022-11-25T04:54:04.812Z,56.33
2022-11-25T04:56:33.005Z,44.00
2022-11-25T04:59:19.957Z,40.53
2022-11-25T05:01:47.889Z,70.50
2022-11-25T05:04:16.042Z,52.58
2022-11-25T05:06:43.903Z,58.53
2022-11-25T05:09:12.096Z,72.70
2022-11-25T05:11:39.979Z,92.90
2022-11-25T05:14:09.409Z,101.18
2022-11-25T05:16:37.315Z,45.80
2022-11-25T05:19:05.314Z,56.15
2022-11-25T05:21:33.920Z,56.22
2022-11-25T05:24:01.712Z,50.35
2022-11-25T05:26:29.565Z,81.70
2022-11-25T05:28:57.411Z,70.53
2022-11-25T05:31:26.777Z,54.95
2022-11-25T05:33:54.642Z,68.35
2022-11-25T05:36:22.487Z,60.10
2022-11-25T05:38:50.533Z,67.72
2022-11-25T05:41:18.390Z,60.00
2022-11-25T05:43:47.206Z,56.25
2022-11-25T05:46:15.194Z,45.70
2022-11-25T05:48:44.526Z,53.90
2022-11-25T05:51:12.512Z,60.33
2022-11-25T05:53:40.359Z,66.35
2022-11-25T05:56:09.162Z,58.05
2022-11-25T05:58:37.134Z,61.72
2022-11-25T06:01:08.972Z,58.88
2022-11-25T06:03:38.788Z,54.67
2022-11-25T06:06:08.959Z,56.75
2022-11-25T06:08:37.767Z,53.88
2022-11-25T06:11:07.133Z,59.60
2022-11-25T06:13:35.065Z,67.65
2022-11-25T06:16:08.426Z,80.90
2022-11-25T06:18:37.637Z,90.43
2022-11-25T06:21:08.082Z,62.63
2022-11-25T06:23:37.251Z,103.82
2022-11-25T06:26:06.634Z,95.30
2022-11-25T06:28:34.760Z,58.72
2022-11-25T06:31:07.476Z,57.80
2022-11-25T06:33:35.696Z,58.53
2022-11-25T06:36:05.384Z,74.13
2022-11-25T06:38:35.310Z,61.58
2022-11-25T06:41:03.808Z,73.72
2022-11-25T06:43:33.115Z,62.53
2022-11-25T06:46:06.061Z,50.08
2022-11-25T06:48:34.534Z,58.30
2022-11-25T06:51:03.933Z,152.98
2022-11-25T06:53:32.827Z,66.65
2022-11-25T06:56:10.326Z,76.57
2022-11-25T06:58:38.807Z,54.60
2022-11-25T07:01:08.904Z,65.97
2022-11-25T07:03:36.965Z,64.35
2022-11-25T07:06:05.214Z,168.80
2022-11-25T07:08:34.385Z,132.82
2022-11-25T07:11:09.256Z,160.05
2022-11-25T07:13:37.125Z,141.90
2022-11-25T07:16:06.590Z,178.23
2022-11-25T07:18:36.628Z,82.78
2022-11-25T07:21:07.098Z,71.13
2022-11-25T07:23:35.226Z,178.05
2022-11-25T07:26:04.728Z,101.32
2022-11-25T07:28:34.087Z,91.60
2022-11-25T07:31:29.111Z,117.13
2022-11-25T07:33:59.311Z,93.88
2022-11-25T07:36:28.044Z,156.55
2022-11-25T07:38:56.165Z,94.40
2022-11-25T07:41:26.091Z,80.13
2022-11-25T07:43:57.856Z,62.25
2022-11-25T07:46:27.935Z,65.68
2022-11-25T07:48:57.012Z,90.95
2022-11-25T07:51:27.580Z,80.28
2022-11-25T07:53:56.485Z,73.53
2022-11-25T07:56:24.937Z,74.85
2022-11-25T07:58:52.852Z,75.07
2022-11-25T08:01:22.480Z,77.07
2022-11-25T08:03:51.621Z,70.13
2022-11-25T08:06:22.202Z,74.88
2022-11-25T08:08:54.703Z,73.15
2022-11-25T08:11:24.584Z,61.33
2022-11-25T08:13:52.514Z,66.82
2022-11-25T08:16:23.426Z,71.07
2022-11-25T08:18:51.753Z,77.28
2022-11-25T08:21:20.251Z,74.22
2022-11-25T08:23:49.011Z,62.72
2022-11-25T08:26:19.880Z,50.53
2022-11-25T08:28:48.160Z,56.78
2022-11-25T08:31:18.531Z,56.50
2022-11-25T08:33:48.235Z,91.60
2022-11-25T08:36:16.588Z,80.15
2022-11-25T08:38:45.232Z,82.65
2022-11-25T08:41:15.234Z,77.47
2022-11-25T08:43:43.697Z,77.00
2022-11-25T08:46:13.559Z,75.85
2022-11-25T08:48:41.912Z,73.55
2022-11-25T08:51:13.651Z,70.70
2022-11-25T08:53:42.622Z,77.72
2022-11-25T08:56:10.925Z,76.90
2022-11-25T08:58:39.057Z,73.07
2022-11-25T09:01:08.131Z,79.80
2022-11-25T09:03:38.338Z,86.80
2022-11-25T09:06:07.258Z,96.57
2022-11-25T09:08:38.692Z,95.57
2022-11-25T09:11:07.341Z,88.10
2022-11-25T09:13:35.586Z,80.07
2022-11-25T09:16:03.780Z,63.30
2022-11-25T09:18:32.620Z,53.35
2022-11-25T09:21:00.616Z,52.45
2022-11-25T09:23:28.527Z,38.60
2022-11-25T09:25:59.123Z,28.20
2022-11-25T09:28:27.882Z,26.63
2022-11-25T09:30:55.759Z,28.70
2022-11-25T09:33:23.857Z,22.77
2022-11-25T09:35:51.759Z,25.05
2022-11-25T09:38:19.612Z,27.38
2022-11-25T09:40:55.394Z,26.73
2022-11-25T09:43:56.961Z,25.90
2022-11-25T09:46:43.301Z,28.23
2022-11-25T09:49:24.557Z,28.10
2022-11-25T09:52:04.288Z,22.40
2022-11-25T09:54:36.864Z,21.88
2022-11-25T09:57:19.955Z,18.65
2022-11-25T10:00:00.010Z,27.42
2022-11-25T10:02:32.743Z,23.88
2022-11-25T10:05:06.730Z,26.77
2022-11-25T10:07:39.486Z,24.55
2022-11-25T10:10:15.427Z,22.85
2022-11-25T10:12:46.106Z,19.13
2022-11-25T10:15:20.280Z,22.48
2022-11-25T10:17:51.005Z,18.75
2022-11-25T10:20:22.422Z,21.50
2022-11-25T10:22:53.350Z,22.98
2022-11-25T10:25:23.892Z,23.52
2022-11-25T10:27:58.250Z,19.88
2022-11-25T10:30:35.111Z,22.75
2022-11-25T10:33:14.103Z,27.05
2022-11-25T10:35:50.824Z,22.38
2022-11-25T10:38:25.332Z,20.05
2022-11-25T10:40:55.981Z,22.85
2022-11-25T10:43:28.615Z,25.08
2022-11-25T10:46:12.557Z,23.35
2022-11-25T10:49:00.232Z,22.13
2022-11-25T10:51:40.745Z,23.83
2022-11-25T10:54:14.072Z,24.40
2022-11-25T10:56:49.241Z,24.63
2022-11-25T10:59:26.120Z,23.95
2022-11-25T11:02:15.297Z,21.80
2022-11-25T11:04:55.832Z,23.27
2022-11-25T11:07:24.575Z,24.95
2022-11-25T11:09:52.453Z,27.52
2022-11-25T11:12:24.260Z,25.52
2022-11-25T11:14:52.604Z,22.42
2022-11-25T11:17:37.334Z,20.17
2022-11-25T11:20:21.226Z,24.60
2022-11-25T11:22:55.703Z,21.77
2022-11-25T11:25:30.566Z,23.48
2022-11-25T11:27:58.708Z,20.95
2022-11-25T11:30:28.240Z,24.98
2022-11-25T11:33:00.711Z,39.38
2022-11-25T11:35:48.029Z,43.33
2022-11-25T11:38:33.049Z,55.30
2022-11-25T11:41:12.846Z,71.93
2022-11-25T11:44:07.270Z,87.93
2022-11-25T11:46:48.640Z,71.75
2022-11-25T11:49:31.978Z,59.38
2022-11-25T11:52:09.383Z,58.53
2022-11-25T11:54:44.792Z,43.13
2022-11-25T11:57:24.082Z,46.22
2022-11-25T11:59:54.280Z,52.85
2022-11-25T12:02:45.312Z,45.03
2022-11-25T12:05:19.482Z,38.15
2022-11-25T12:07:58.685Z,38.97
2022-11-25T12:10:31.200Z,35.30
2022-11-25T12:13:06.773Z,36.25
2022-11-25T12:15:42.570Z,36.50
2022-11-25T12:18:34.574Z,33.33
2022-11-25T12:21:06.332Z,41.38
2022-11-25T12:23:45.288Z,39.00
2022-11-25T12:26:19.440Z,34.70
2022-11-25T12:28:53.220Z,32.70
2022-11-25T12:31:25.914Z,39.85
2022-11-25T12:34:02.555Z,32.55
2022-11-25T12:36:35.976Z,38.35
2022-11-25T12:39:06.252Z,36.47
2022-11-25T12:41:42.102Z,33.92
2022-11-25T12:44:16.650Z,32.30
2022-11-25T12:46:47.528Z,38.13
2022-11-25T12:49:20.854Z,31.90
2022-11-25T12:52:12.065Z,42.28
2022-11-25T12:55:00.464Z,37.10
2022-11-25T12:57:49.199Z,29.00
2022-11-25T13:03:36.031Z,31.42
2022-11-25T13:06:41.909Z,31.58
2022-11-25T13:09:31.723Z,26.08
2022-11-25T13:12:12.950Z,30.05
2022-11-25T13:15:05.820Z,30.30
2022-11-25T13:17:40.892Z,29.42
2022-11-25T13:20:39.979Z,27.25
2022-11-25T13:23:22.694Z,24.65
2022-11-25T13:25:53.677Z,30.83
2022-11-25T13:28:31.163Z,29.40
2022-11-25T13:31:21.667Z,28.98
2022-11-25T13:34:04.233Z,35.33
2022-11-25T13:36:47.215Z,36.75
2022-11-25T13:39:16.945Z,30.73
2022-11-25T13:41:49.812Z,36.80
2022-11-25T13:44:28.202Z,32.83
2022-11-25T13:46:58.355Z,36.22
2022-11-25T13:49:34.373Z,31.67
2022-11-25T13:52:07.310Z,34.63
2022-11-25T13:54:40.384Z,32.90
2022-11-25T13:57:27.046Z,28.13
2022-11-25T14:00:01.609Z,28.33
2022-11-25T14:02:46.060Z,25.60
2022-11-25T14:05:43.347Z,26.40
2022-11-25T14:08:21.738Z,33.10
2022-11-25T14:10:58.338Z,28.80
2022-11-25T14:13:49.337Z,31.45
2022-11-25T14:16:38.308Z,26.00
2022-11-25T14:22:43.967Z,30.85
2022-11-25T14:25:20.531Z,26.40
2022-11-25T14:27:52.214Z,30.92
2022-11-25T14:30:21.762Z,31.85
2022-11-25T14:32:56.139Z,32.13
2022-11-25T14:35:29.483Z,28.15
2022-11-25T14:38:02.462Z,31.80
2022-11-25T14:40:36.738Z,26.63
2022-11-25T14:43:09.047Z,29.50
2022-11-25T14:45:38.612Z,28.70
2022-11-25T14:48:16.686Z,30.70
2022-11-25T14:50:56.496Z,28.83
2022-11-25T14:53:25.664Z,37.38
2022-11-25T14:55:55.009Z,32.97
2022-11-25T14:58:23.165Z,32.95
2022-11-25T15:01:00.094Z,34.25
2022-11-25T15:03:28.142Z,29.45
2022-11-25T15:05:57.939Z,28.70
2022-11-25T15:08:26.839Z,31.33
2022-11-25T15:10:57.225Z,28.83
2022-11-25T15:13:35.689Z,32.10
2022-11-25T15:16:11.774Z,30.33
2022-11-25T15:18:44.664Z,30.63
2022-11-25T15:21:16.095Z,31.88
2022-11-25T15:23:43.972Z,34.53
2022-11-25T15:26:18.833Z,41.13
2022-11-25T15:28:47.575Z,40.97
2022-11-25T15:31:21.842Z,34.67
2022-11-25T15:33:57.546Z,39.10
2022-11-25T15:36:27.081Z,37.30
2022-11-25T15:38:55.067Z,44.13
2022-11-25T15:41:33.370Z,47.53
2022-11-25T15:44:03.708Z,34.35
2022-11-25T15:46:36.753Z,42.10
2022-11-25T15:49:06.992Z,44.33
2022-11-25T15:51:40.086Z,40.45
2022-11-25T15:54:18.553Z,38.78
2022-11-25T15:56:50.032Z,43.03
2022-11-25T15:59:51.412Z,41.08
2022-11-25T16:02:50.811Z,37.78
2022-11-25T16:05:32.207Z,39.88
2022-11-25T16:08:02.695Z,41.95
2022-11-25T16:10:33.446Z,37.83
2022-11-25T16:13:34.429Z,41.05
2022-11-25T16:16:12.093Z,43.10
2022-11-25T16:18:44.224Z,41.35
2022-11-25T16:21:15.980Z,36.30
2022-11-25T16:23:47.407Z,37.92
2022-11-25T16:26:18.967Z,41.60
2022-11-25T16:28:54.042Z,42.03
2022-11-25T16:31:22.668Z,34.45
2022-11-25T16:33:54.844Z,40.50
2022-11-25T16:36:22.935Z,40.15
2022-11-25T16:38:53.433Z,37.72
2022-11-25T16:41:24.269Z,38.83
2022-11-25T16:43:52.155Z,36.53
2022-11-25T16:46:21.479Z,36.38
2022-11-25T16:48:49.340Z,45.83
2022-11-25T16:51:20.329Z,38.15
2022-11-25T16:53:49.173Z,38.25
2022-11-25T16:56:21.569Z,40.70
2022-11-25T16:58:49.497Z,39.13
2022-11-25T17:01:20.774Z,40.15
2022-11-25T17:03:48.664Z,42.85
2022-11-25T17:06:22.127Z,41.33
2022-11-25T17:08:51.501Z,40.20
2022-11-25T17:11:23.244Z,39.20
2022-11-25T17:13:53.645Z,46.22
2022-11-25T17:16:24.541Z,45.70
2022-11-25T17:18:54.673Z,39.78
2022-11-25T17:21:27.029Z,43.03
2022-11-25T17:23:55.885Z,44.03
2022-11-25T17:26:27.746Z,47.75
2022-11-25T17:28:59.215Z,46.30
2022-11-25T17:31:29.838Z,42.70
2022-11-25T17:33:57.760Z,47.05
2022-11-25T17:36:27.951Z,54.55
2022-11-25T17:38:56.116Z,48.97
2022-11-25T17:41:27.573Z,52.45
2022-11-25T17:43:56.309Z,51.45
2022-11-25T17:46:29.463Z,45.65
2022-11-25T17:48:57.339Z,50.35
2022-11-25T17:51:26.650Z,49.22
2022-11-25T17:53:54.439Z,50.58
2022-11-25T17:56:27.094Z,50.28
2022-11-25T17:58:55.821Z,47.83
2022-11-25T18:01:23.911Z,50.20
2022-11-25T18:03:53.173Z,46.63
2022-11-25T18:06:21.270Z,51.03
2022-11-25T18:08:50.644Z,46.15
2022-11-25T18:11:22.928Z,48.25
2022-11-25T18:13:51.643Z,51.83
2022-11-25T18:16:20.963Z,48.78
2022-11-25T18:18:48.919Z,51.97
2022-11-25T18:21:16.802Z,51.42
2022-11-25T18:23:44.641Z,50.58
2022-11-25T18:26:14.273Z,50.13
2022-11-25T18:28:42.281Z,49.83
2022-11-25T18:31:12.881Z,51.42
2022-11-25T18:33:41.673Z,52.33
2022-11-25T18:36:14.020Z,57.75
2022-11-25T18:38:42.062Z,57.47
2022-11-25T18:41:20.836Z,61.45
2022-11-25T18:43:48.828Z,51.20
2022-11-25T18:46:16.887Z,58.47
2022-11-25T18:48:44.853Z,47.38
2022-11-25T18:51:14.421Z,58.65
2022-11-25T18:53:42.246Z,59.53
2022-11-25T18:56:17.802Z,51.75
2022-11-25T18:58:50.442Z,54.92
2022-11-25T19:01:19.806Z,57.63
2022-11-25T19:03:47.669Z,55.38
2022-11-25T19:06:15.686Z,58.67
2022-11-25T19:08:43.655Z,60.83
2022-11-25T19:11:18.841Z,62.80
2022-11-25T19:13:50.856Z,57.20
2022-11-25T19:16:21.976Z,56.40
2022-11-25T19:18:50.584Z,63.33
2022-11-25T19:21:20.942Z,65.35
2022-11-25T19:23:49.540Z,57.50
2022-11-25T19:26:22.126Z,63.13
2022-11-25T19:28:52.597Z,70.25
2022-11-25T19:31:21.590Z,54.85
2022-11-25T19:33:51.490Z,61.90
2022-11-25T19:36:24.777Z,61.25
2022-11-25T19:38:53.825Z,55.85
2022-11-25T19:41:23.164Z,58.92
2022-11-25T19:43:51.298Z,57.22
2022-11-25T19:46:30.036Z,51.88
2022-11-25T19:49:03.156Z,52.33
2022-11-25T19:51:34.224Z,67.00
2022-11-25T19:54:02.212Z,52.78
2022-11-25T19:56:31.482Z,57.33
2022-11-25T19:58:59.351Z,55.47
2022-11-25T20:01:32.852Z,52.55
2022-11-25T20:04:02.413Z,47.42
2022-11-25T20:06:31.420Z,55.15
2022-11-25T20:09:06.499Z,60.80
2022-11-25T20:11:37.172Z,65.55
2022-11-25T20:14:05.214Z,54.03
2022-11-25T20:16:36.827Z,63.28
2022-11-25T20:19:07.044Z,63.33
2022-11-25T20:21:37.710Z,62.78
2022-11-25T20:24:11.800Z,79.95
2022-11-25T20:26:45.935Z,77.78
2022-11-25T20:29:17.046Z,66.53
2022-11-25T20:31:44.935Z,62.88
2022-11-25T20:34:12.853Z,66.90
2022-11-25T20:36:42.307Z,63.55
2022-11-25T20:39:17.171Z,70.60
2022-11-25T20:41:49.383Z,71.65
2022-11-25T20:44:17.422Z,71.22
2022-11-25T20:46:45.352Z,73.53
2022-11-25T20:49:22.057Z,62.53
2022-11-25T20:51:50.638Z,69.15
2022-11-25T20:54:18.835Z,64.40
2022-11-25T20:56:48.303Z,62.50
2022-11-25T20:59:21.914Z,66.13
2022-11-25T21:01:50.461Z,58.35
2022-11-25T21:04:20.440Z,59.17
2022-11-25T21:06:48.505Z,65.00
2022-11-25T21:09:19.133Z,65.22
2022-11-25T21:11:49.190Z,72.70
2022-11-25T21:14:19.381Z,65.93
2022-11-25T21:16:47.761Z,59.88
2022-11-25T21:19:16.027Z,58.70
2022-11-25T21:21:46.910Z,62.42
2022-11-25T21:24:27.806Z,56.45
2022-11-25T21:26:57.774Z,58.95
2022-11-25T21:29:25.844Z,55.47
2022-11-25T21:31:53.876Z,61.13
2022-11-25T21:34:21.891Z,58.72
2022-11-25T21:36:52.805Z,64.10
2022-11-25T21:39:29.263Z,68.60
2022-11-25T21:42:00.648Z,71.88
2022-11-25T21:44:32.381Z,60.55
2022-11-25T21:47:00.440Z,56.58
2022-11-25T21:49:28.996Z,60.40
2022-11-25T21:51:56.823Z,58.60
2022-11-25T21:54:24.687Z,62.75
2022-11-25T21:56:53.036Z,56.55
2022-11-25T21:59:22.518Z,58.15
2022-11-25T22:01:50.399Z,54.03
2022-11-25T22:04:21.112Z,55.88
2022-11-25T22:06:51.039Z,56.75
2022-11-25T22:09:19.300Z,62.50
2022-11-25T22:11:50.423Z,60.97
2022-11-25T22:14:29.029Z,57.17
2022-11-25T22:16:58.130Z,52.47
2022-11-25T22:19:28.795Z,50.00
2022-11-25T22:21:57.053Z,46.20
2022-11-25T22:24:25.241Z,52.78
2022-11-25T22:26:57.663Z,54.00
2022-11-25T22:29:34.580Z,69.35
2022-11-25T22:32:05.882Z,58.88
2022-11-25T22:34:36.670Z,53.17
2022-11-25T22:37:04.783Z,59.42
2022-11-25T22:39:32.692Z,62.17
2022-11-25T22:42:05.501Z,56.03
2022-11-25T22:44:39.299Z,58.20
2022-11-25T22:47:08.264Z,57.85
2022-11-25T22:49:40.134Z,55.45
2022-11-25T22:52:20.240Z,59.03
2022-11-25T22:54:48.331Z,60.83
2022-11-25T22:57:16.265Z,55.83
2022-11-25T22:59:45.747Z,60.88
2022-11-25T23:02:20.687Z,58.80
2022-11-25T23:04:52.000Z,51.75
2022-11-25T23:07:20.839Z,61.67
2022-11-25T23:09:49.123Z,57.45
2022-11-25T23:12:18.655Z,52.45
2022-11-25T23:14:48.318Z,57.42
2022-11-25T23:17:20.742Z,60.65
2022-11-25T23:19:49.227Z,64.03
2022-11-25T23:22:17.426Z,62.97
2022-11-25T23:24:46.569Z,60.40
2022-11-25T23:27:15.491Z,69.32
2022-11-25T23:29:43.374Z,61.85
2022-11-25T23:32:19.408Z,62.42
2022-11-25T23:34:50.622Z,62.92
2022-11-25T23:37:19.912Z,61.55
2022-11-25T23:39:54.698Z,64.32
2022-11-25T23:42:23.225Z,60.13
2022-11-25T23:44:51.200Z,59.35
2022-11-25T23:47:23.177Z,62.17
2022-11-25T23:49:53.976Z,66.22
2022-11-25T23:52:26.731Z,59.28
2022-11-25T23:54:55.686Z,56.53
2022-11-25T23:57:26.369Z,63.35
2022-11-25T23:59:54.239Z,60.35
